Time;durP1;ratioP1;P1;durP2;ratioP2;P2;SDS_P1;SDS_P2;PMS_P1;PMS_P2;Temp;Humidity;BMP_temperature;BMP_pressure;BME280_temperature;BME280_humidity;BME280_pressure;Samples;Min_cycle;Max_cycle;Signal;HPM_P1;HPM_P2
2021/05/13 00:00:53;;;;;;;16.53;4.67;;;14.70;99.90;;;;;;5079899;28;20182;-70
2021/05/13 00:03:20;;;;;;;14.63;4.20;;;14.60;99.90;;;;;;5084233;28;20194;-70
2021/05/13 00:05:46;;;;;;;13.53;3.93;;;14.50;99.90;;;;;;5061420;28;20242;-70
2021/05/13 00:08:12;;;;;;;13.10;3.47;;;14.40;99.90;;;;;;5082522;28;20327;-70
2021/05/13 00:10:39;;;;;;;12.13;4.30;;;14.40;99.90;;;;;;5064379;28;20199;-70
2021/05/13 00:13:06;;;;;;;12.67;3.73;;;14.30;99.90;;;;;;5081705;28;20218;-70
2021/05/13 00:15:38;;;;;;;12.90;4.00;;;14.20;99.90;;;;;;5080603;28;20198;-69
2021/05/13 00:18:04;;;;;;;20.87;5.17;;;14.30;99.90;;;;;;5084407;28;20206;-70
2021/05/13 00:20:39;;;;;;;13.77;4.20;;;14.30;99.90;;;;;;5082482;28;20243;-70
2021/05/13 00:23:06;;;;;;;14.70;4.17;;;14.30;99.90;;;;;;5085859;28;20186;-70
2021/05/13 00:25:32;;;;;;;17.00;4.47;;;14.30;99.90;;;;;;5070686;28;20189;-69
2021/05/13 00:27:58;;;;;;;13.70;4.60;;;14.20;99.90;;;;;;5080426;28;20205;-70
2021/05/13 00:30:25;;;;;;;11.03;4.23;;;14.20;99.90;;;;;;5081749;28;20191;-70
2021/05/13 00:32:52;;;;;;;16.50;4.90;;;14.40;99.90;;;;;;5083937;28;20209;-72
2021/05/13 00:35:21;;;;;;;17.60;4.13;;;14.60;99.90;;;;;;5081241;28;20650;-73
2021/05/13 00:37:47;;;;;;;18.47;5.17;;;14.60;99.90;;;;;;5081570;28;20320;-70
2021/05/13 00:40:20;;;;;;;17.20;4.87;;;14.60;99.90;;;;;;5080800;28;20200;-70
2021/05/13 00:42:47;;;;;;;25.50;5.40;;;14.70;99.90;;;;;;5065562;28;20221;-70
2021/05/13 00:45:16;;;;;;;16.80;5.50;;;14.90;99.90;;;;;;5083185;28;20190;-72
2021/05/13 00:47:48;;;;;;;20.37;5.37;;;15.10;99.90;;;;;;5081517;28;20194;-70
2021/05/13 00:50:16;;;;;;;20.10;5.40;;;15.10;99.90;;;;;;5062807;28;20209;-72
2021/05/13 00:52:43;;;;;;;16.50;5.13;;;15.10;99.90;;;;;;5080578;28;20193;-73
2021/05/13 00:55:10;;;;;;;15.57;4.93;;;14.90;99.90;;;;;;5057811;28;20227;-72
2021/05/13 00:57:39;;;;;;;13.80;4.50;;;14.80;99.90;;;;;;5076493;28;20210;-73
2021/05/13 01:00:28;;;;;;;14.33;4.60;;;14.80;99.90;;;;;;5084908;28;20189;-71
2021/05/13 01:02:53;;;;;;;18.83;4.73;;;14.70;99.90;;;;;;5086720;28;20201;-73
2021/05/13 01:05:19;;;;;;;26.30;4.67;;;14.80;99.90;;;;;;5084926;28;20183;-73
2021/05/13 01:07:45;;;;;;;20.70;4.70;;;14.90;99.90;;;;;;5082063;28;20218;-72
2021/05/13 01:10:12;;;;;;;19.23;5.33;;;14.90;99.90;;;;;;5068756;28;20197;-72
2021/05/13 01:12:43;;;;;;;20.40;5.73;;;15.00;99.90;;;;;;5086438;28;20186;-72
2021/05/13 01:15:25;;;;;;;16.00;5.50;;;15.10;99.90;;;;;;5084860;28;20676;-72
2021/05/13 01:20:27;;;;;;;20.00;5.23;;;15.20;99.90;;;;;;5086661;28;20190;-73
2021/05/13 01:22:59;;;;;;;17.17;5.73;;;15.30;99.90;;;;;;5085417;28;21065;-73
2021/05/13 01:25:27;;;;;;;18.93;4.90;;;15.30;99.90;;;;;;5084803;28;20194;-72
2021/05/13 01:28:01;;;;;;;24.50;6.40;;;15.20;99.90;;;;;;5062459;28;20957;-72
2021/05/13 01:30:29;;;;;;;15.87;4.67;;;15.20;99.90;;;;;;5085484;28;20208;-74
2021/05/13 01:33:00;;;;;;;24.70;5.17;;;15.20;99.90;;;;;;5068003;28;20194;-73
2021/05/13 01:35:27;;;;;;;13.17;4.30;;;15.40;99.90;;;;;;5084046;28;20557;-72
2021/05/13 01:38:12;;;;;;;14.23;4.47;;;15.40;99.90;;;;;;5083587;28;20229;-72
2021/05/13 01:40:40;;;;;;;13.43;4.30;;;15.30;99.90;;;;;;5083430;28;20246;-73
2021/05/13 01:43:07;;;;;;;16.00;4.57;;;15.20;99.90;;;;;;5085693;28;20197;-71
2021/05/13 01:45:34;;;;;;;12.67;4.07;;;15.20;99.90;;;;;;5084661;28;20269;-74
2021/05/13 01:48:04;;;;;;;13.87;4.00;;;15.10;99.90;;;;;;5081048;28;20191;-73
2021/05/13 01:50:35;;;;;;;10.13;4.47;;;14.90;99.90;;;;;;5069156;28;20190;-73
2021/05/13 01:53:06;;;;;;;9.73;3.60;;;14.80;99.90;;;;;;5082096;28;20210;-72
2021/05/13 01:55:36;;;;;;;14.17;3.80;;;14.70;99.90;;;;;;5067502;28;21429;-72
2021/05/13 01:58:03;;;;;;;15.83;5.30;;;14.70;99.90;;;;;;5075179;28;20206;-72
2021/05/13 02:00:32;;;;;;;12.77;4.17;;;14.70;99.90;;;;;;5100142;27;20943;-70
2021/05/13 02:02:59;;;;;;;10.87;3.80;;;14.60;99.90;;;;;;5084203;28;20206;-70
2021/05/13 02:05:25;;;;;;;7.67;3.73;;;14.50;99.90;;;;;;5067199;28;20253;-70
2021/05/13 02:07:52;;;;;;;8.40;3.80;;;14.50;99.90;;;;;;5082356;28;20198;-70
2021/05/13 02:10:19;;;;;;;11.67;3.80;;;14.30;99.90;;;;;;5083555;28;20190;-70
2021/05/13 02:12:47;;;;;;;8.40;3.57;;;14.10;99.90;;;;;;5086967;28;20194;-70
2021/05/13 02:15:17;;;;;;;12.50;4.20;;;14.00;99.90;;;;;;5084383;28;20645;-70
2021/05/13 02:17:43;;;;;;;9.93;3.87;;;14.00;99.90;;;;;;5085001;28;20202;-70
2021/05/13 02:20:14;;;;;;;9.73;3.97;;;14.00;99.90;;;;;;5084395;28;20592;-69
2021/05/13 02:22:41;;;;;;;14.70;4.33;;;14.20;99.90;;;;;;5085225;28;20270;-70
2021/05/13 02:25:10;;;;;;;15.53;4.10;;;14.30;99.90;;;;;;5100577;28;20222;-70
2021/05/13 02:27:38;;;;;;;11.27;4.00;;;14.50;99.90;;;;;;5081453;28;20197;-70
2021/05/13 02:30:08;;;;;;;14.50;4.10;;;14.50;99.90;;;;;;5095766;28;20201;-71
2021/05/13 02:32:35;;;;;;;9.37;3.67;;;14.60;99.90;;;;;;5065186;28;20666;-70
2021/05/13 02:35:02;;;;;;;12.53;3.83;;;14.60;99.90;;;;;;5083324;28;20186;-70
2021/05/13 02:37:28;;;;;;;13.00;4.07;;;14.60;99.90;;;;;;5067079;28;20696;-72
2021/05/13 02:39:54;;;;;;;12.43;4.10;;;14.70;99.90;;;;;;5082963;28;20916;-72
2021/05/13 02:42:21;;;;;;;11.80;3.43;;;14.80;99.90;;;;;;5079475;28;20242;-72
2021/05/13 02:44:47;;;;;;;9.63;3.90;;;14.60;99.90;;;;;;5086340;28;20261;-72
2021/05/13 02:47:13;;;;;;;10.80;3.20;;;14.50;99.90;;;;;;5082857;28;20283;-70
2021/05/13 02:49:39;;;;;;;9.77;3.23;;;14.50;99.90;;;;;;5084684;28;20305;-70
2021/05/13 02:52:06;;;;;;;14.63;3.87;;;14.40;99.90;;;;;;5081683;28;20627;-70
2021/05/13 02:54:33;;;;;;;10.53;4.03;;;14.20;99.90;;;;;;5083321;28;20218;-70
2021/05/13 02:56:59;;;;;;;10.87;3.30;;;14.20;99.90;;;;;;5083616;28;20197;-70
2021/05/13 02:59:40;;;;;;;7.87;3.77;;;14.20;99.90;;;;;;5080425;28;20254;-70
2021/05/13 03:02:07;;;;;;;9.90;3.60;;;14.10;99.90;;;;;;5080391;28;20264;-68
2021/05/13 03:04:33;;;;;;;15.07;3.83;;;14.00;99.90;;;;;;5099136;28;20182;-70
2021/05/13 03:07:00;;;;;;;5.17;3.73;;;14.00;99.90;;;;;;5083632;28;20657;-69
2021/05/13 03:09:26;;;;;;;7.23;3.57;;;14.00;99.90;;;;;;5065000;28;20182;-69
2021/05/13 03:11:52;;;;;;;11.47;4.00;;;13.80;99.90;;;;;;5082324;28;20217;-70
2021/05/13 03:14:19;;;;;;;8.57;3.60;;;13.60;99.90;;;;;;5065479;28;20183;-69
2021/05/13 03:16:45;;;;;;;7.67;3.40;;;13.70;99.90;;;;;;5082254;28;20248;-70
2021/05/13 03:19:17;;;;;;;9.17;3.73;;;13.80;99.90;;;;;;5079363;28;20211;-70
2021/05/13 03:21:45;;;;;;;11.83;3.77;;;13.80;99.90;;;;;;5085237;28;20258;-69
2021/05/13 03:24:35;;;;;;;11.13;3.80;;;13.90;99.90;;;;;;5086063;28;20174;-70
2021/05/13 03:29:50;;;;;;;12.03;3.80;;;14.00;99.90;;;;;;5051067;28;20201;-70
2021/05/13 03:32:17;;;;;;;6.53;3.37;;;14.00;99.90;;;;;;5075480;28;20187;-69
2021/05/13 03:34:43;;;;;;;7.50;3.60;;;14.00;99.90;;;;;;5084476;28;20182;-70
2021/05/13 03:37:10;;;;;;;6.97;3.10;;;14.10;99.90;;;;;;5062694;28;20183;-70
2021/05/13 03:39:36;;;;;;;8.13;3.23;;;14.10;99.90;;;;;;5083901;28;20189;-70
2021/05/13 03:42:03;;;;;;;7.67;3.23;;;14.20;99.90;;;;;;5082986;28;20189;-70
2021/05/13 03:44:29;;;;;;;7.70;3.40;;;14.30;99.90;;;;;;5081961;28;20194;-70
2021/05/13 03:46:55;;;;;;;7.90;3.50;;;14.30;99.90;;;;;;5080270;28;20204;-70
2021/05/13 03:49:22;;;;;;;7.37;3.40;;;14.30;99.90;;;;;;5083348;28;20243;-69
2021/05/13 03:51:48;;;;;;;7.53;3.67;;;14.20;99.90;;;;;;5080267;28;20190;-69
2021/05/13 03:54:15;;;;;;;9.43;3.57;;;14.20;99.90;;;;;;5081094;28;20186;-70
2021/05/13 03:56:42;;;;;;;8.57;3.33;;;14.30;99.90;;;;;;5081019;28;20225;-69
2021/05/13 03:59:15;;;;;;;13.47;3.37;;;14.30;99.90;;;;;;5084610;28;20217;-70
2021/05/13 04:04:12;;;;;;;9.00;3.70;;;14.60;99.90;;;;;;5080934;28;20572;-72
2021/05/13 04:06:39;;;;;;;11.70;3.40;;;14.80;99.90;;;;;;5084702;28;20217;-70
2021/05/13 04:09:10;;;;;;;8.57;3.07;;;15.00;99.90;;;;;;5081852;28;20182;-70
2021/05/13 04:11:39;;;;;;;15.40;3.63;;;15.20;99.90;;;;;;5085151;28;20654;-70
2021/05/13 04:14:08;;;;;;;8.00;3.00;;;15.30;99.90;;;;;;5079103;28;20397;-72
2021/05/13 04:16:38;;;;;;;5.83;2.90;;;15.40;99.90;;;;;;5061335;28;20274;-72
2021/05/13 04:19:05;;;;;;;11.97;3.07;;;15.60;99.90;;;;;;5063054;28;20210;-71
2021/05/13 04:21:32;;;;;;;6.13;2.83;;;15.70;99.90;;;;;;5064574;28;20688;-73
2021/05/13 04:23:58;;;;;;;6.97;3.13;;;15.80;99.90;;;;;;5081386;28;20206;-73
2021/05/13 04:26:25;;;;;;;10.97;3.03;;;15.80;99.90;;;;;;5065642;28;20186;-72
2021/05/13 04:28:51;;;;;;;14.07;2.97;;;16.10;99.90;;;;;;5080939;28;20526;-72
2021/05/13 04:31:18;;;;;;;8.90;2.50;;;16.50;99.90;;;;;;5060575;28;20552;-72
2021/05/13 04:33:44;;;;;;;5.70;2.97;;;16.50;99.90;;;;;;5056070;28;20185;-73
2021/05/13 04:36:11;;;;;;;11.53;2.67;;;16.50;99.90;;;;;;5061253;28;20210;-72
2021/05/13 04:38:37;;;;;;;8.00;3.60;;;16.50;99.90;;;;;;5082904;28;20217;-72
2021/05/13 04:41:03;;;;;;;3.97;2.43;;;16.40;99.90;;;;;;5079680;28;20256;-72
2021/05/13 04:43:38;;;;;;;5.30;3.20;;;16.20;99.90;;;;;;5081455;28;20680;-73
2021/05/13 04:46:06;;;;;;;8.40;3.43;;;16.10;99.90;;;;;;5065462;28;21042;-73
2021/05/13 04:48:55;;;;;;;6.53;2.93;;;16.10;99.90;;;;;;5100026;28;20186;-72
2021/05/13 04:51:27;;;;;;;10.23;2.87;;;16.20;99.90;;;;;;5081008;28;20201;-72
2021/05/13 04:53:54;;;;;;;7.40;2.73;;;16.30;99.90;;;;;;5065431;28;20265;-71
2021/05/13 04:56:21;;;;;;;8.90;2.80;;;16.50;99.90;;;;;;5081466;28;20205;-71
2021/05/13 04:58:48;;;;;;;12.53;2.97;;;16.60;99.90;;;;;;5083423;28;20304;-73
2021/05/13 05:01:16;;;;;;;6.27;2.37;;;16.80;99.90;;;;;;5081029;28;20281;-71
2021/05/13 05:03:43;;;;;;;7.67;2.80;;;17.00;99.90;;;;;;5072529;28;20191;-72
2021/05/13 05:06:10;;;;;;;7.53;2.80;;;17.30;99.90;;;;;;5079842;28;20282;-72
2021/05/13 05:08:40;;;;;;;7.70;2.93;;;17.30;99.90;;;;;;5082320;28;20749;-72
2021/05/13 05:11:07;;;;;;;14.80;3.30;;;17.30;99.90;;;;;;5067267;28;20221;-72
2021/05/13 05:13:34;;;;;;;8.20;2.70;;;17.40;99.90;;;;;;5061877;28;20199;-72
2021/05/13 05:16:01;;;;;;;6.23;2.77;;;17.40;99.90;;;;;;5065121;28;20271;-72
2021/05/13 05:18:28;;;;;;;7.13;2.50;;;17.60;99.90;;;;;;5082023;28;20210;-73
2021/05/13 05:20:55;;;;;;;8.57;2.97;;;17.70;99.90;;;;;;5083169;28;20545;-72
2021/05/13 05:23:21;;;;;;;5.60;2.60;;;17.70;99.90;;;;;;5062156;28;20190;-72
2021/05/13 05:25:49;;;;;;;7.20;2.67;;;17.70;99.90;;;;;;5062519;28;20190;-72
2021/05/13 05:28:15;;;;;;;9.67;2.57;;;17.90;99.90;;;;;;5080855;28;20193;-72
2021/05/13 05:30:42;;;;;;;9.13;2.73;;;18.00;99.90;;;;;;5061543;28;20574;-72
2021/05/13 05:33:10;;;;;;;7.77;2.67;;;18.20;99.90;;;;;;5060533;28;20202;-70
2021/05/13 05:35:39;;;;;;;8.87;2.70;;;18.30;99.90;;;;;;5074523;28;20208;-69
2021/05/13 05:38:07;;;;;;;7.53;2.60;;;18.40;99.90;;;;;;5058893;28;20233;-73
2021/05/13 05:40:35;;;;;;;10.60;2.80;;;18.40;99.90;;;;;;5080344;28;20185;-70
2021/05/13 05:43:03;;;;;;;10.60;2.50;;;18.40;99.90;;;;;;5059596;28;20183;-70
2021/05/13 05:45:30;;;;;;;13.63;2.53;;;18.60;99.90;;;;;;5100662;27;20249;-73
2021/05/13 05:48:02;;;;;;;5.07;2.30;;;19.00;99.90;;;;;;5066891;28;20198;-70
2021/05/13 05:50:40;;;;;;;10.47;2.73;;;19.00;99.90;;;;;;5068575;28;20894;-70
2021/05/13 05:53:44;;;;;;;12.80;2.70;;;19.10;99.90;;;;;;5066751;28;20194;-70
2021/05/13 05:56:10;;;;;;;5.57;2.57;;;19.20;99.90;;;;;;5068598;28;20197;-72
2021/05/13 05:58:36;;;;;;;8.67;2.87;;;19.40;99.90;;;;;;5084904;28;20267;-72
2021/05/13 06:01:03;;;;;;;14.57;2.40;;;19.70;99.90;;;;;;5081821;28;20626;-73
2021/05/13 06:03:30;;;;;;;7.17;2.70;;;19.70;99.90;;;;;;5066988;28;21031;-70
2021/05/13 06:05:56;;;;;;;12.03;3.23;;;19.50;99.90;;;;;;5072536;28;20634;-73
2021/05/13 06:08:22;;;;;;;7.27;2.63;;;19.40;99.90;;;;;;5083392;28;20255;-72
2021/05/13 06:10:49;;;;;;;13.67;2.90;;;19.40;99.90;;;;;;5084821;28;20218;-72
2021/05/13 06:13:15;;;;;;;10.60;2.77;;;19.50;99.90;;;;;;5083387;28;20659;-72
2021/05/13 06:15:42;;;;;;;9.53;2.80;;;19.80;99.90;;;;;;5084732;28;20218;-73
2021/05/13 06:18:08;;;;;;;12.00;2.90;;;19.90;99.90;;;;;;5061964;28;20198;-72
2021/05/13 06:20:36;;;;;;;9.50;2.97;;;20.20;99.90;;;;;;5067845;28;20208;-72
2021/05/13 06:23:04;;;;;;;9.57;2.60;;;20.30;99.90;;;;;;5081211;28;20221;-72
2021/05/13 06:25:31;;;;;;;17.13;3.03;;;20.40;99.90;;;;;;5067633;28;20904;-72
2021/05/13 06:27:57;;;;;;;8.80;3.00;;;20.40;99.90;;;;;;5082371;28;20191;-73
2021/05/13 06:30:25;;;;;;;15.07;3.57;;;20.50;99.90;;;;;;5065276;28;20635;-72
2021/05/13 06:33:00;;;;;;;18.40;4.00;;;20.60;99.90;;;;;;5080050;28;20384;-72
2021/05/13 06:35:31;;;;;;;10.63;3.30;;;20.70;99.90;;;;;;5082062;28;20224;-72
2021/05/13 06:38:00;;;;;;;16.23;3.67;;;20.80;99.90;;;;;;5073078;28;20213;-73
2021/05/13 06:40:30;;;;;;;14.10;3.50;;;21.00;99.90;;;;;;5077336;28;20688;-72
2021/05/13 06:42:56;;;;;;;13.57;3.57;;;20.90;99.90;;;;;;5075688;28;20566;-72
2021/05/13 06:45:22;;;;;;;16.63;3.50;;;20.90;99.90;;;;;;5060098;28;20191;-73
2021/05/13 06:47:49;;;;;;;15.90;3.57;;;21.00;99.90;;;;;;5076942;28;20188;-70
2021/05/13 06:50:15;;;;;;;13.00;3.33;;;21.00;99.90;;;;;;5080490;28;20206;-70
2021/05/13 06:52:42;;;;;;;10.27;3.63;;;21.10;99.90;;;;;;5065091;28;20226;-72
2021/05/13 06:55:13;;;;;;;19.67;4.30;;;21.20;99.90;;;;;;5084220;28;20190;-70
2021/05/13 06:57:43;;;;;;;11.13;3.70;;;21.20;99.90;;;;;;5080791;28;20279;-70
2021/05/13 07:00:19;;;;;;;17.10;4.10;;;21.30;99.90;;;;;;5095805;28;20284;-70
2021/05/13 07:02:47;;;;;;;8.60;3.67;;;21.40;99.90;;;;;;5084968;28;20186;-70
2021/05/13 07:05:14;;;;;;;13.93;3.77;;;21.50;99.90;;;;;;5070879;28;20190;-70
2021/05/13 07:07:41;;;;;;;13.87;3.93;;;21.50;99.90;;;;;;5047337;28;20220;-72
2021/05/13 07:10:09;;;;;;;18.40;4.40;;;21.60;99.90;;;;;;5077532;28;20205;-71
2021/05/13 07:12:36;;;;;;;17.93;4.77;;;21.70;99.90;;;;;;5077710;28;20201;-72
2021/05/13 07:15:03;;;;;;;10.63;4.07;;;21.70;99.90;;;;;;5063377;28;20243;-72
2021/05/13 07:17:30;;;;;;;17.73;5.00;;;21.70;99.90;;;;;;5082435;28;20316;-72
2021/05/13 07:19:56;;;;;;;11.70;4.33;;;21.80;99.90;;;;;;5084063;28;20193;-70
2021/05/13 07:22:23;;;;;;;15.40;3.90;;;21.70;99.90;;;;;;5063416;28;20198;-70
2021/05/13 07:24:49;;;;;;;16.27;4.13;;;21.70;99.90;;;;;;5056936;28;20209;-71
2021/05/13 07:27:17;;;;;;;13.73;4.13;;;21.80;99.90;;;;;;5082415;28;20633;-71
2021/05/13 07:29:43;;;;;;;14.30;4.93;;;21.90;99.90;;;;;;5066408;28;20190;-71
2021/05/13 07:32:09;;;;;;;17.93;4.50;;;21.90;99.90;;;;;;5094192;28;20198;-71
2021/05/13 07:34:36;;;;;;;17.27;4.60;;;21.90;99.90;;;;;;5079391;28;20189;-71
2021/05/13 07:37:02;;;;;;;11.37;4.53;;;22.00;99.90;;;;;;5075101;28;20193;-71
2021/05/13 07:39:29;;;;;;;17.40;4.83;;;22.00;99.90;;;;;;5054979;28;20649;-71
2021/05/13 07:41:56;;;;;;;13.53;4.20;;;22.10;99.90;;;;;;5078212;28;20186;-71
2021/05/13 07:44:23;;;;;;;15.60;4.63;;;22.10;99.90;;;;;;5077617;28;20216;-71
2021/05/13 07:46:49;;;;;;;13.53;4.40;;;22.20;99.90;;;;;;5080249;28;20998;-71
2021/05/13 07:49:16;;;;;;;18.03;4.80;;;22.20;99.90;;;;;;5077960;28;20191;-72
2021/05/13 07:51:44;;;;;;;13.63;4.53;;;22.20;99.90;;;;;;5079475;28;20195;-71
2021/05/13 07:54:11;;;;;;;17.30;4.70;;;22.30;99.90;;;;;;5065935;28;20224;-73
2021/05/13 07:56:38;;;;;;;14.17;4.40;;;22.40;99.90;;;;;;5064648;28;20186;-72
2021/05/13 07:59:05;;;;;;;10.27;4.10;;;22.40;99.90;;;;;;5080972;28;20205;-74
2021/05/13 08:01:32;;;;;;;12.37;4.27;;;22.50;99.90;;;;;;5081757;28;21047;-72
2021/05/13 08:03:58;;;;;;;14.43;4.40;;;22.40;99.90;;;;;;5062752;28;20182;-71
2021/05/13 08:06:24;;;;;;;22.93;5.20;;;22.50;99.90;;;;;;5080278;28;20198;-71
2021/05/13 08:08:51;;;;;;;20.73;4.63;;;22.60;99.90;;;;;;5072182;28;20639;-71
2021/05/13 08:11:17;;;;;;;11.90;4.23;;;22.70;99.90;;;;;;5099606;28;20855;-72
2021/05/13 08:13:44;;;;;;;13.67;4.50;;;22.80;99.90;;;;;;5083263;28;20709;-71
2021/05/13 08:16:10;;;;;;;14.30;4.63;;;22.90;99.90;;;;;;5080210;28;20198;-71
2021/05/13 08:18:36;;;;;;;16.23;5.07;;;22.90;99.90;;;;;;5078747;28;20276;-71
2021/05/13 08:21:03;;;;;;;11.57;3.67;;;22.90;99.90;;;;;;5078508;28;20185;-72
2021/05/13 08:23:29;;;;;;;17.90;4.40;;;22.90;99.90;;;;;;5078867;28;20240;-71
2021/05/13 08:25:56;;;;;;;16.47;4.17;;;23.00;99.90;;;;;;5064539;28;20300;-71
2021/05/13 08:28:22;;;;;;;17.27;4.00;;;23.00;99.90;;;;;;5078501;28;20891;-72
2021/05/13 08:30:49;;;;;;;13.43;4.13;;;23.20;99.90;;;;;;5063351;28;20195;-72
2021/05/13 08:33:18;;;;;;;14.57;4.30;;;23.30;99.90;;;;;;5079015;28;20209;-71
2021/05/13 08:35:44;;;;;;;12.50;4.40;;;23.30;99.90;;;;;;5081715;28;20273;-70
2021/05/13 08:38:11;;;;;;;17.03;4.97;;;23.30;99.90;;;;;;5061046;28;20935;-71
2021/05/13 08:40:37;;;;;;;22.87;4.90;;;23.40;99.90;;;;;;5068448;28;20268;-71
2021/05/13 08:43:04;;;;;;;21.53;4.77;;;23.30;99.90;;;;;;5058786;28;20276;-69
2021/05/13 08:45:34;;;;;;;14.10;4.10;;;23.50;99.90;;;;;;5060011;28;20191;-70
2021/05/13 08:48:01;;;;;;;15.07;4.17;;;23.70;99.90;;;;;;5076734;28;20221;-70
2021/05/13 08:50:28;;;;;;;17.03;5.17;;;23.70;99.90;;;;;;5077321;28;20615;-69
2021/05/13 08:53:02;;;;;;;18.10;4.20;;;23.80;99.90;;;;;;5076153;28;20194;-70
2021/05/13 08:55:29;;;;;;;12.97;4.03;;;24.00;99.90;;;;;;5085977;28;20662;-70
2021/05/13 08:57:55;;;;;;;15.33;4.30;;;24.00;99.90;;;;;;5079142;28;20207;-70
2021/05/13 09:00:21;;;;;;;16.23;4.60;;;24.00;99.90;;;;;;5078651;28;20183;-70
2021/05/13 09:02:52;;;;;;;16.73;4.23;;;23.90;99.90;;;;;;5061845;28;20653;-71
2021/05/13 09:05:19;;;;;;;22.93;4.60;;;24.00;99.90;;;;;;5063684;28;20186;-71
2021/05/13 09:07:45;;;;;;;22.23;4.20;;;24.10;99.90;;;;;;5075465;28;20198;-71
2021/05/13 09:10:16;;;;;;;16.73;4.10;;;24.20;99.90;;;;;;5072267;28;20190;-72
2021/05/13 09:12:51;;;;;;;13.37;4.23;;;24.20;99.90;;;;;;5073495;28;20280;-72
2021/05/13 09:15:28;;;;;;;13.67;3.93;;;24.10;99.90;;;;;;5079705;28;20289;-71
2021/05/13 09:17:57;;;;;;;15.27;4.13;;;24.30;99.90;;;;;;5084135;28;20290;-70
2021/05/13 09:20:36;;;;;;;18.30;4.90;;;24.20;99.90;;;;;;5082829;28;20197;-70
2021/05/13 09:23:14;;;;;;;11.20;4.00;;;24.30;99.90;;;;;;5085687;28;20220;-72
2021/05/13 09:25:44;;;;;;;13.20;3.90;;;24.50;99.90;;;;;;5085577;28;20186;-72
2021/05/13 09:28:11;;;;;;;18.30;4.43;;;24.50;99.90;;;;;;5067756;28;20202;-70
2021/05/13 09:30:38;;;;;;;15.50;4.07;;;24.40;99.90;;;;;;5084550;28;20186;-71
2021/05/13 09:33:08;;;;;;;16.30;4.05;;;24.60;99.90;;;;;;5084974;28;20178;-71
2021/05/13 09:35:37;;;;;;;18.40;4.32;;;24.60;99.90;;;;;;5068003;28;20228;-70
2021/05/13 09:38:09;;;;;;;17.95;3.70;;;24.70;99.90;;;;;;5083130;28;20214;-70
2021/05/13 09:40:42;;;;;;;13.65;4.25;;;24.90;99.90;;;;;;5085299;28;20182;-70
2021/05/13 09:58:45;;;;;;;17.73;4.80;;;25.30;99.90;;;;;;5079751;28;20295;-69
2021/05/13 10:01:15;;;;;;;12.10;3.83;;;25.40;99.90;;;;;;5076021;28;20197;-70
2021/05/13 10:03:44;;;;;;;13.10;3.95;;;25.30;99.90;;;;;;5065741;28;20206;-72
2021/05/13 10:06:12;;;;;;;13.27;3.80;;;25.50;99.90;;;;;;5085102;28;20210;-72
2021/05/13 10:08:42;;;;;;;15.25;4.10;;;25.80;99.90;;;;;;5080974;28;20194;-72
2021/05/13 10:11:15;;;;;;;12.00;4.30;;;25.80;99.90;;;;;;5065492;28;20178;-72
2021/05/13 10:13:42;;;;;;;16.38;3.78;;;25.90;99.90;;;;;;5082132;28;20190;-72
2021/05/13 10:16:08;;;;;;;15.48;3.28;;;25.80;99.90;;;;;;5065105;28;20367;-70
2021/05/13 10:18:45;;;;;;;13.00;3.85;;;26.00;99.90;;;;;;5083835;28;20218;-69
2021/05/13 10:21:22;;;;;;;19.75;3.70;;;26.00;99.90;;;;;;5078785;28;20181;-72
2021/05/13 10:23:50;;;;;;;10.25;3.50;;;26.00;99.90;;;;;;5081114;28;20740;-71
2021/05/13 10:26:32;;;;;;;11.55;3.85;;;26.00;99.90;;;;;;5085215;28;20182;-72
2021/05/13 10:28:59;;;;;;;12.85;3.78;;;26.10;99.90;;;;;;5064783;28;20194;-72
2021/05/13 10:31:36;;;;;;;11.40;3.72;;;26.10;99.90;;;;;;5073314;28;24661;-69
2021/05/13 10:34:03;;;;;;;14.90;4.03;;;25.90;99.90;;;;;;5075000;28;20190;-74
2021/05/13 10:36:30;;;;;;;12.20;3.92;;;25.80;99.90;;;;;;5068183;28;20183;-70
2021/05/13 10:39:11;;;;;;;13.03;4.07;;;25.70;99.90;;;;;;5080390;28;20236;-72
2021/05/13 10:41:43;;;;;;;14.35;3.83;;;25.60;99.90;;;;;;5087035;28;20182;-70
2021/05/13 10:44:09;;;;;;;14.40;4.10;;;25.50;99.90;;;;;;5078851;28;20852;-72
2021/05/13 10:46:38;;;;;;;13.48;4.53;;;25.60;99.90;;;;;;5081784;28;20948;-69
2021/05/13 10:49:17;;;;;;;16.10;4.78;;;25.60;99.90;;;;;;5081428;28;20256;-72
2021/05/13 10:51:45;;;;;;;12.23;3.95;;;25.40;99.90;;;;;;5084546;28;20190;-72
2021/05/13 10:54:45;;;;;;;11.80;3.97;;;25.50;99.90;;;;;;5067729;28;20237;-70
2021/05/13 10:57:20;;;;;;;13.38;4.15;;;25.40;99.90;;;;;;5081452;28;20787;-72
2021/05/13 11:00:08;;;;;;;13.63;3.67;;;25.20;99.90;;;;;;5081522;28;20249;-69
2021/05/13 11:02:45;;;;;;;20.27;4.18;;;25.00;99.90;;;;;;5071933;28;20308;-69
2021/05/13 11:05:30;;;;;;;15.73;3.88;;;25.20;99.90;;;;;;5084332;28;20221;-70
2021/05/13 11:08:08;;;;;;;15.25;4.18;;;25.30;99.90;;;;;;5078221;28;20594;-70
2021/05/13 11:11:07;;;;;;;9.98;3.63;;;25.50;99.90;;;;;;5080273;28;20178;-71
2021/05/13 11:13:46;;;;;;;13.15;3.55;;;25.30;99.90;;;;;;5033414;28;20193;-70
2021/05/13 11:16:46;;;;;;;14.35;3.75;;;25.10;99.90;;;;;;5079483;28;20205;-71
2021/05/13 11:19:23;;;;;;;12.02;3.78;;;25.40;99.90;;;;;;5079381;28;20654;-69
2021/05/13 11:22:04;;;;;;;19.88;3.90;;;25.60;99.90;;;;;;5076035;28;20186;-72
2021/05/13 11:24:37;;;;;;;12.02;3.95;;;25.60;99.90;;;;;;5079242;28;20212;-70
2021/05/13 11:27:06;;;;;;;10.20;3.53;;;25.50;99.90;;;;;;5080654;28;20217;-72
2021/05/13 11:29:49;;;;;;;9.00;3.67;;;25.60;99.90;;;;;;5083733;28;20194;-71
2021/05/13 11:32:16;;;;;;;18.13;3.88;;;25.50;99.90;;;;;;5073807;28;20205;-70
2021/05/13 11:34:44;;;;;;;11.57;4.05;;;25.50;99.90;;;;;;5074408;28;20194;-68
2021/05/13 11:37:33;;;;;;;12.75;4.15;;;25.50;99.90;;;;;;5081352;28;20663;-72
2021/05/13 11:40:28;;;;;;;19.63;3.88;;;25.40;99.90;;;;;;5078801;28;20190;-68
2021/05/13 11:43:25;;;;;;;11.55;3.80;;;25.40;99.90;;;;;;5100170;28;20182;-71
2021/05/13 11:45:56;;;;;;;12.07;3.40;;;25.40;99.90;;;;;;5087552;28;20206;-71
2021/05/13 11:48:26;;;;;;;15.55;4.45;;;25.40;99.90;;;;;;5079440;28;20225;-71
2021/05/13 11:51:03;;;;;;;14.75;4.30;;;25.30;99.90;;;;;;5077944;28;20190;-71
2021/05/13 11:53:30;;;;;;;12.07;4.03;;;25.30;99.90;;;;;;5067288;28;20184;-70
2021/05/13 11:55:57;;;;;;;15.90;4.13;;;25.30;99.90;;;;;;5084700;28;20281;-72
2021/05/13 11:58:43;;;;;;;13.10;4.03;;;25.30;99.90;;;;;;5084601;28;20214;-70
2021/05/13 12:01:34;;;;;;;15.77;4.07;;;25.10;99.90;;;;;;5082149;28;20190;-71
2021/05/13 12:04:22;;;;;;;9.50;3.37;;;25.20;99.90;;;;;;5073867;28;20193;-71
2021/05/13 12:07:01;;;;;;;14.40;3.90;;;25.10;99.90;;;;;;5081704;28;20210;-71
2021/05/13 12:09:32;;;;;;;13.95;4.10;;;25.20;99.90;;;;;;5082619;28;20190;-70
2021/05/13 12:12:00;;;;;;;14.75;4.15;;;25.10;99.90;;;;;;5081928;28;20186;-70
2021/05/13 12:14:31;;;;;;;11.70;3.58;;;25.10;99.90;;;;;;5065402;28;20186;-69
2021/05/13 12:17:09;;;;;;;15.55;4.35;;;25.10;99.90;;;;;;5080985;28;20200;-70
2021/05/13 12:19:44;;;;;;;15.23;4.25;;;25.20;99.90;;;;;;5085342;28;20216;-69
2021/05/13 12:22:14;;;;;;;12.38;3.85;;;25.10;99.90;;;;;;5082156;28;20206;-69
2021/05/13 12:24:43;;;;;;;12.43;3.67;;;25.10;99.90;;;;;;5084865;28;20181;-70
2021/05/13 12:27:13;;;;;;;13.52;3.75;;;25.20;99.90;;;;;;5083152;28;20182;-71
2021/05/13 12:29:47;;;;;;;13.70;3.60;;;25.20;99.90;;;;;;5066169;28;20276;-69
2021/05/13 12:32:29;;;;;;;12.63;4.18;;;25.00;99.90;;;;;;5066594;28;20194;-71
2021/05/13 12:34:56;;;;;;;17.30;3.83;;;25.00;99.90;;;;;;5069662;28;20243;-68
2021/05/13 12:37:24;;;;;;;13.77;4.05;;;24.90;99.90;;;;;;5079471;28;20200;-68
2021/05/13 12:39:52;;;;;;;12.73;3.47;;;24.90;99.90;;;;;;5081978;28;20201;-69
2021/05/13 12:42:32;;;;;;;12.75;3.90;;;24.90;99.90;;;;;;5082984;28;20825;-68
2021/05/13 12:45:25;;;;;;;12.90;3.57;;;24.80;99.90;;;;;;5064883;28;20198;-69
2021/05/13 12:48:03;;;;;;;16.80;3.85;;;24.80;99.90;;;;;;5082466;28;20193;-70
2021/05/13 12:50:31;;;;;;;18.13;4.30;;;24.70;99.90;;;;;;5064825;28;20259;-71
2021/05/13 12:53:14;;;;;;;17.30;4.03;;;24.70;99.90;;;;;;5069355;28;20193;-68
2021/05/13 12:55:44;;;;;;;19.23;4.90;;;24.70;99.90;;;;;;5087032;28;20194;-71
2021/05/13 12:58:16;;;;;;;15.93;3.90;;;24.60;99.90;;;;;;5067141;28;20282;-71
2021/05/13 13:00:52;;;;;;;14.47;3.60;;;24.50;99.90;;;;;;5088107;28;20756;-72
2021/05/13 13:03:32;;;;;;;16.27;3.70;;;24.50;99.90;;;;;;5103763;28;20192;-71
2021/05/13 13:06:07;;;;;;;12.10;3.80;;;24.60;99.90;;;;;;5059725;28;20898;-70
2021/05/13 13:08:41;;;;;;;11.38;3.83;;;24.70;99.90;;;;;;5086984;28;20282;-71
2021/05/13 13:11:08;;;;;;;14.77;4.23;;;24.50;99.90;;;;;;5081141;28;20194;-70
2021/05/13 13:13:47;;;;;;;11.43;3.43;;;24.50;99.90;;;;;;5089173;28;20190;-70
2021/05/13 13:16:25;;;;;;;14.77;3.53;;;24.40;99.90;;;;;;5082386;28;20221;-69